sensor_id;sensor_type;location;lat;lon;timestamp;P1;durP1;ratioP1;P2;durP2;ratioP2
1446;SDS011;717;51.522;7.266;2023-07-08T00:01:50;4.00;;;1.90;;
1446;SDS011;717;51.522;7.266;2023-07-08T00:04:20;3.10;;;1.88;;
1446;SDS011;717;51.522;7.266;2023-07-08T00:06:50;3.35;;;1.98;;
1446;SDS011;717;51.522;7.266;2023-07-08T00:09:20;2.38;;;1.80;;
1446;SDS011;717;51.522;7.266;2023-07-08T00:11:50;4.30;;;1.98;;
1446;SDS011;717;51.522;7.266;2023-07-08T00:14:23;5.22;;;2.13;;
1446;SDS011;717;51.522;7.266;2023-07-08T00:16:53;3.42;;;2.15;;
1446;SDS011;717;51.522;7.266;2023-07-08T00:19:23;2.50;;;2.05;;
1446;SDS011;717;51.522;7.266;2023-07-08T00:21:53;4.13;;;1.70;;
1446;SDS011;717;51.522;7.266;2023-07-08T00:24:23;2.10;;;1.50;;
1446;SDS011;717;51.522;7.266;2023-07-08T00:26:53;4.43;;;2.03;;
1446;SDS011;717;51.522;7.266;2023-07-08T00:29:25;2.05;;;1.85;;
1446;SDS011;717;51.522;7.266;2023-07-08T00:31:55;1.92;;;1.50;;
1446;SDS011;717;51.522;7.266;2023-07-08T00:34:25;4.03;;;1.83;;
1446;SDS011;717;51.522;7.266;2023-07-08T00:36:55;2.42;;;1.60;;
1446;SDS011;717;51.522;7.266;2023-07-08T00:39:25;3.10;;;1.83;;
1446;SDS011;717;51.522;7.266;2023-07-08T00:41:55;1.63;;;1.52;;
1446;SDS011;717;51.522;7.266;2023-07-08T00:44:29;2.22;;;1.67;;
1446;SDS011;717;51.522;7.266;2023-07-08T00:47:02;1.45;;;1.35;;
1446;SDS011;717;51.522;7.266;2023-07-08T00:49:35;2.50;;;1.90;;
1446;SDS011;717;51.522;7.266;2023-07-08T00:52:18;4.53;;;1.77;;
1446;SDS011;717;51.522;7.266;2023-07-08T00:54:51;3.85;;;1.83;;
1446;SDS011;717;51.522;7.266;2023-07-08T00:57:23;3.50;;;1.77;;
1446;SDS011;717;51.522;7.266;2023-07-08T00:59:59;2.88;;;1.77;;
1446;SDS011;717;51.522;7.266;2023-07-08T01:02:37;3.40;;;1.75;;
1446;SDS011;717;51.522;7.266;2023-07-08T01:05:09;3.42;;;1.90;;
1446;SDS011;717;51.522;7.266;2023-07-08T01:07:42;2.08;;;1.60;;
1446;SDS011;717;51.522;7.266;2023-07-08T01:10:18;2.92;;;2.20;;
1446;SDS011;717;51.522;7.266;2023-07-08T01:12:53;2.63;;;1.85;;
1446;SDS011;717;51.522;7.266;2023-07-08T01:15:34;2.97;;;1.98;;
1446;SDS011;717;51.522;7.266;2023-07-08T01:18:08;2.78;;;1.80;;
1446;SDS011;717;51.522;7.266;2023-07-08T01:20:39;1.85;;;1.63;;
1446;SDS011;717;51.522;7.266;2023-07-08T01:23:12;2.25;;;1.70;;
1446;SDS011;717;51.522;7.266;2023-07-08T01:25:42;2.05;;;1.85;;
1446;SDS011;717;51.522;7.266;2023-07-08T01:28:13;1.98;;;1.75;;
1446;SDS011;717;51.522;7.266;2023-07-08T01:30:43;3.33;;;2.00;;
1446;SDS011;717;51.522;7.266;2023-07-08T01:33:16;2.40;;;1.60;;
1446;SDS011;717;51.522;7.266;2023-07-08T01:35:48;2.00;;;1.60;;
1446;SDS011;717;51.522;7.266;2023-07-08T01:38:23;2.35;;;1.85;;
1446;SDS011;717;51.522;7.266;2023-07-08T01:40:56;2.00;;;1.90;;
1446;SDS011;717;51.522;7.266;2023-07-08T01:43:27;1.73;;;1.60;;
1446;SDS011;717;51.522;7.266;2023-07-08T01:45:57;2.10;;;1.90;;
1446;SDS011;717;51.522;7.266;2023-07-08T01:48:31;4.78;;;1.70;;
1446;SDS011;717;51.522;7.266;2023-07-08T01:51:06;3.47;;;1.70;;
1446;SDS011;717;51.522;7.266;2023-07-08T01:53:40;2.17;;;1.60;;
1446;SDS011;717;51.522;7.266;2023-07-08T01:56:12;2.17;;;1.80;;
1446;SDS011;717;51.522;7.266;2023-07-08T01:58:43;2.90;;;1.90;;
1446;SDS011;717;51.522;7.266;2023-07-08T02:01:13;3.38;;;1.92;;
1446;SDS011;717;51.522;7.266;2023-07-08T02:03:44;3.13;;;1.75;;
1446;SDS011;717;51.522;7.266;2023-07-08T02:06:15;1.98;;;1.55;;
1446;SDS011;717;51.522;7.266;2023-07-08T02:08:48;3.42;;;1.70;;
1446;SDS011;717;51.522;7.266;2023-07-08T02:11:19;2.35;;;1.70;;
1446;SDS011;717;51.522;7.266;2023-07-08T02:13:49;1.63;;;1.50;;
1446;SDS011;717;51.522;7.266;2023-07-08T02:16:19;3.35;;;1.65;;
1446;SDS011;717;51.522;7.266;2023-07-08T02:18:49;3.95;;;1.88;;
1446;SDS011;717;51.522;7.266;2023-07-08T02:21:19;3.15;;;2.17;;
1446;SDS011;717;51.522;7.266;2023-07-08T02:23:52;3.50;;;1.90;;
1446;SDS011;717;51.522;7.266;2023-07-08T02:26:24;2.88;;;1.88;;
1446;SDS011;717;51.522;7.266;2023-07-08T02:28:54;2.28;;;1.70;;
1446;SDS011;717;51.522;7.266;2023-07-08T02:31:24;2.92;;;1.90;;
1446;SDS011;717;51.522;7.266;2023-07-08T02:33:55;3.47;;;1.92;;
1446;SDS011;717;51.522;7.266;2023-07-08T02:36:25;3.25;;;1.70;;
1446;SDS011;717;51.522;7.266;2023-07-08T02:38:57;6.00;;;1.90;;
1446;SDS011;717;51.522;7.266;2023-07-08T02:41:27;1.95;;;1.80;;
1446;SDS011;717;51.522;7.266;2023-07-08T02:43:57;3.55;;;1.98;;
1446;SDS011;717;51.522;7.266;2023-07-08T02:46:27;2.35;;;1.88;;
1446;SDS011;717;51.522;7.266;2023-07-08T02:48:58;2.03;;;1.60;;
1446;SDS011;717;51.522;7.266;2023-07-08T02:51:28;3.50;;;1.90;;
1446;SDS011;717;51.522;7.266;2023-07-08T02:54:01;2.53;;;1.95;;
1446;SDS011;717;51.522;7.266;2023-07-08T02:56:31;3.38;;;1.88;;
1446;SDS011;717;51.522;7.266;2023-07-08T02:59:01;2.85;;;1.70;;
1446;SDS011;717;51.522;7.266;2023-07-08T03:01:30;4.18;;;2.03;;
1446;SDS011;717;51.522;7.266;2023-07-08T03:04:08;2.53;;;1.77;;
1446;SDS011;717;51.522;7.266;2023-07-08T03:06:39;3.50;;;1.75;;
1446;SDS011;717;51.522;7.266;2023-07-08T03:09:12;3.17;;;1.95;;
1446;SDS011;717;51.522;7.266;2023-07-08T03:11:42;2.50;;;1.95;;
1446;SDS011;717;51.522;7.266;2023-07-08T03:14:13;3.85;;;2.10;;
1446;SDS011;717;51.522;7.266;2023-07-08T03:16:43;4.18;;;1.90;;
1446;SDS011;717;51.522;7.266;2023-07-08T03:19:13;2.53;;;1.88;;
1446;SDS011;717;51.522;7.266;2023-07-08T03:21:43;1.88;;;1.65;;
1446;SDS011;717;51.522;7.266;2023-07-08T03:24:16;1.80;;;1.70;;
1446;SDS011;717;51.522;7.266;2023-07-08T03:26:48;3.83;;;1.80;;
1446;SDS011;717;51.522;7.266;2023-07-08T03:29:23;3.10;;;1.95;;
1446;SDS011;717;51.522;7.266;2023-07-08T03:31:53;2.72;;;1.88;;
1446;SDS011;717;51.522;7.266;2023-07-08T03:34:23;2.38;;;2.05;;
1446;SDS011;717;51.522;7.266;2023-07-08T03:36:54;3.17;;;2.10;;
1446;SDS011;717;51.522;7.266;2023-07-08T03:39:27;2.47;;;2.00;;
1446;SDS011;717;51.522;7.266;2023-07-08T03:41:58;2.30;;;1.90;;
1446;SDS011;717;51.522;7.266;2023-07-08T03:44:28;2.03;;;1.83;;
1446;SDS011;717;51.522;7.266;2023-07-08T03:46:58;3.70;;;1.95;;
1446;SDS011;717;51.522;7.266;2023-07-08T03:49:28;4.03;;;1.88;;
1446;SDS011;717;51.522;7.266;2023-07-08T03:51:59;2.95;;;2.00;;
1446;SDS011;717;51.522;7.266;2023-07-08T03:54:31;3.53;;;2.22;;
1446;SDS011;717;51.522;7.266;2023-07-08T03:57:01;3.35;;;2.00;;
1446;SDS011;717;51.522;7.266;2023-07-08T03:59:31;3.10;;;1.90;;
1446;SDS011;717;51.522;7.266;2023-07-08T04:02:02;4.00;;;1.90;;
1446;SDS011;717;51.522;7.266;2023-07-08T04:04:32;4.00;;;2.30;;
1446;SDS011;717;51.522;7.266;2023-07-08T04:07:02;2.67;;;2.20;;
1446;SDS011;717;51.522;7.266;2023-07-08T04:09:35;2.85;;;1.73;;
1446;SDS011;717;51.522;7.266;2023-07-08T04:12:05;2.53;;;2.00;;
1446;SDS011;717;51.522;7.266;2023-07-08T04:14:37;2.80;;;2.20;;
1446;SDS011;717;51.522;7.266;2023-07-08T04:17:09;4.80;;;2.10;;
1446;SDS011;717;51.522;7.266;2023-07-08T04:19:40;2.58;;;2.00;;
1446;SDS011;717;51.522;7.266;2023-07-08T04:22:10;3.47;;;2.00;;
1446;SDS011;717;51.522;7.266;2023-07-08T04:24:43;3.38;;;2.15;;
1446;SDS011;717;51.522;7.266;2023-07-08T04:27:13;4.72;;;2.08;;
1446;SDS011;717;51.522;7.266;2023-07-08T04:29:44;2.38;;;1.95;;
1446;SDS011;717;51.522;7.266;2023-07-08T04:32:14;3.78;;;1.92;;
1446;SDS011;717;51.522;7.266;2023-07-08T04:34:44;2.38;;;1.98;;
1446;SDS011;717;51.522;7.266;2023-07-08T04:37:14;4.65;;;2.10;;
1446;SDS011;717;51.522;7.266;2023-07-08T04:39:48;2.47;;;2.00;;
1446;SDS011;717;51.522;7.266;2023-07-08T04:42:18;3.80;;;2.03;;
1446;SDS011;717;51.522;7.266;2023-07-08T04:44:48;3.33;;;2.30;;
1446;SDS011;717;51.522;7.266;2023-07-08T04:47:18;2.20;;;1.90;;
1446;SDS011;717;51.522;7.266;2023-07-08T04:49:48;3.15;;;2.13;;
1446;SDS011;717;51.522;7.266;2023-07-08T04:52:18;2.30;;;2.10;;
1446;SDS011;717;51.522;7.266;2023-07-08T04:54:50;2.78;;;2.30;;
1446;SDS011;717;51.522;7.266;2023-07-08T04:57:20;2.80;;;2.10;;
1446;SDS011;717;51.522;7.266;2023-07-08T04:59:51;2.33;;;1.98;;
1446;SDS011;717;51.522;7.266;2023-07-08T05:02:21;3.50;;;2.20;;
1446;SDS011;717;51.522;7.266;2023-07-08T05:04:51;3.92;;;2.38;;
1446;SDS011;717;51.522;7.266;2023-07-08T05:07:21;5.20;;;1.98;;
1446;SDS011;717;51.522;7.266;2023-07-08T05:09:53;2.85;;;2.42;;
1446;SDS011;717;51.522;7.266;2023-07-08T05:12:25;3.17;;;1.85;;
1446;SDS011;717;51.522;7.266;2023-07-08T05:14:55;3.30;;;2.10;;
1446;SDS011;717;51.522;7.266;2023-07-08T05:17:26;3.55;;;2.50;;
1446;SDS011;717;51.522;7.266;2023-07-08T05:19:57;2.63;;;2.17;;
1446;SDS011;717;51.522;7.266;2023-07-08T05:22:27;2.80;;;2.50;;
1446;SDS011;717;51.522;7.266;2023-07-08T05:24:59;2.83;;;2.15;;
1446;SDS011;717;51.522;7.266;2023-07-08T05:27:30;2.90;;;1.88;;
1446;SDS011;717;51.522;7.266;2023-07-08T05:30:00;3.00;;;2.17;;
1446;SDS011;717;51.522;7.266;2023-07-08T05:32:30;2.67;;;2.47;;
1446;SDS011;717;51.522;7.266;2023-07-08T05:35:00;3.22;;;2.30;;
1446;SDS011;717;51.522;7.266;2023-07-08T05:37:30;2.33;;;2.10;;
1446;SDS011;717;51.522;7.266;2023-07-08T05:40:03;3.45;;;2.35;;
1446;SDS011;717;51.522;7.266;2023-07-08T05:42:34;2.80;;;2.10;;
1446;SDS011;717;51.522;7.266;2023-07-08T05:45:05;2.50;;;1.90;;
1446;SDS011;717;51.522;7.266;2023-07-08T05:47:36;3.28;;;2.28;;
1446;SDS011;717;51.522;7.266;2023-07-08T05:50:07;2.60;;;1.65;;
1446;SDS011;717;51.522;7.266;2023-07-08T05:52:37;3.38;;;2.20;;
1446;SDS011;717;51.522;7.266;2023-07-08T05:55:10;2.10;;;1.90;;
1446;SDS011;717;51.522;7.266;2023-07-08T05:57:39;2.30;;;2.00;;
1446;SDS011;717;51.522;7.266;2023-07-08T06:00:10;2.95;;;2.40;;
1446;SDS011;717;51.522;7.266;2023-07-08T06:02:59;4.50;;;2.28;;
1446;SDS011;717;51.522;7.266;2023-07-08T06:05:29;4.13;;;2.10;;
1446;SDS011;717;51.522;7.266;2023-07-08T06:08:00;4.95;;;2.30;;
1446;SDS011;717;51.522;7.266;2023-07-08T06:10:32;2.63;;;2.35;;
1446;SDS011;717;51.522;7.266;2023-07-08T06:13:02;3.30;;;2.38;;
1446;SDS011;717;51.522;7.266;2023-07-08T06:15:33;6.78;;;2.38;;
1446;SDS011;717;51.522;7.266;2023-07-08T06:18:03;5.15;;;2.58;;
1446;SDS011;717;51.522;7.266;2023-07-08T06:20:33;2.78;;;2.55;;
1446;SDS011;717;51.522;7.266;2023-07-08T06:23:03;2.92;;;2.03;;
1446;SDS011;717;51.522;7.266;2023-07-08T06:25:35;3.22;;;2.40;;
1446;SDS011;717;51.522;7.266;2023-07-08T06:28:05;2.75;;;2.10;;
1446;SDS011;717;51.522;7.266;2023-07-08T06:30:35;4.03;;;2.35;;
1446;SDS011;717;51.522;7.266;2023-07-08T06:33:05;3.00;;;2.30;;
1446;SDS011;717;51.522;7.266;2023-07-08T06:35:35;2.42;;;2.22;;
1446;SDS011;717;51.522;7.266;2023-07-08T06:38:06;2.45;;;2.25;;
1446;SDS011;717;51.522;7.266;2023-07-08T06:40:39;2.47;;;2.28;;
1446;SDS011;717;51.522;7.266;2023-07-08T06:43:08;6.38;;;2.35;;
1446;SDS011;717;51.522;7.266;2023-07-08T06:45:45;5.30;;;2.42;;
1446;SDS011;717;51.522;7.266;2023-07-08T06:48:15;3.33;;;2.50;;
1446;SDS011;717;51.522;7.266;2023-07-08T06:50:45;5.28;;;2.55;;
1446;SDS011;717;51.522;7.266;2023-07-08T06:53:15;5.65;;;2.88;;
1446;SDS011;717;51.522;7.266;2023-07-08T06:55:48;4.65;;;2.88;;
1446;SDS011;717;51.522;7.266;2023-07-08T06:58:18;2.85;;;2.20;;
1446;SDS011;717;51.522;7.266;2023-07-08T07:00:48;3.63;;;2.92;;
1446;SDS011;717;51.522;7.266;2023-07-08T07:03:18;4.28;;;2.42;;
1446;SDS011;717;51.522;7.266;2023-07-08T07:05:48;4.35;;;2.58;;
1446;SDS011;717;51.522;7.266;2023-07-08T07:08:18;3.38;;;2.58;;
1446;SDS011;717;51.522;7.266;2023-07-08T07:10:51;3.75;;;2.85;;
1446;SDS011;717;51.522;7.266;2023-07-08T07:13:20;2.85;;;2.58;;
1446;SDS011;717;51.522;7.266;2023-07-08T07:15:50;2.83;;;2.60;;
1446;SDS011;717;51.522;7.266;2023-07-08T07:18:20;3.58;;;2.58;;
1446;SDS011;717;51.522;7.266;2023-07-08T07:20:52;3.53;;;2.78;;
1446;SDS011;717;51.522;7.266;2023-07-08T07:23:23;4.18;;;2.72;;
1446;SDS011;717;51.522;7.266;2023-07-08T07:25:56;2.65;;;2.42;;
1446;SDS011;717;51.522;7.266;2023-07-08T07:28:26;3.90;;;2.70;;
1446;SDS011;717;51.522;7.266;2023-07-08T07:30:57;5.00;;;2.92;;
1446;SDS011;717;51.522;7.266;2023-07-08T07:33:30;4.85;;;2.53;;
1446;SDS011;717;51.522;7.266;2023-07-08T07:36:00;5.22;;;2.85;;
1446;SDS011;717;51.522;7.266;2023-07-08T07:38:32;3.22;;;2.80;;
1446;SDS011;717;51.522;7.266;2023-07-08T07:41:05;3.70;;;2.90;;
1446;SDS011;717;51.522;7.266;2023-07-08T07:43:37;3.28;;;2.45;;
1446;SDS011;717;51.522;7.266;2023-07-08T07:46:07;3.95;;;2.72;;
1446;SDS011;717;51.522;7.266;2023-07-08T07:48:37;3.10;;;2.80;;
1446;SDS011;717;51.522;7.266;2023-07-08T07:51:08;3.40;;;2.72;;
1446;SDS011;717;51.522;7.266;2023-07-08T07:53:39;3.28;;;2.80;;
1446;SDS011;717;51.522;7.266;2023-07-08T07:56:11;5.80;;;3.03;;
1446;SDS011;717;51.522;7.266;2023-07-08T07:58:41;3.92;;;2.80;;
1446;SDS011;717;51.522;7.266;2023-07-08T08:01:11;4.13;;;3.22;;
1446;SDS011;717;51.522;7.266;2023-07-08T08:03:42;4.25;;;2.90;;
1446;SDS011;717;51.522;7.266;2023-07-08T08:06:12;5.40;;;2.72;;
1446;SDS011;717;51.522;7.266;2023-07-08T08:08:44;6.00;;;3.38;;
1446;SDS011;717;51.522;7.266;2023-07-08T08:11:18;4.68;;;3.20;;
1446;SDS011;717;51.522;7.266;2023-07-08T08:13:48;4.13;;;3.28;;
1446;SDS011;717;51.522;7.266;2023-07-08T08:16:18;4.72;;;3.10;;
1446;SDS011;717;51.522;7.266;2023-07-08T08:18:48;4.95;;;3.22;;
1446;SDS011;717;51.522;7.266;2023-07-08T08:21:18;3.28;;;2.38;;
1446;SDS011;717;51.522;7.266;2023-07-08T08:23:48;4.85;;;3.25;;
1446;SDS011;717;51.522;7.266;2023-07-08T08:26:21;3.85;;;3.28;;
1446;SDS011;717;51.522;7.266;2023-07-08T08:28:51;3.92;;;3.20;;
1446;SDS011;717;51.522;7.266;2023-07-08T08:31:21;4.30;;;3.28;;
1446;SDS011;717;51.522;7.266;2023-07-08T08:33:51;5.53;;;3.25;;
1446;SDS011;717;51.522;7.266;2023-07-08T08:36:22;3.83;;;3.53;;
1446;SDS011;717;51.522;7.266;2023-07-08T08:38:52;6.35;;;3.50;;
1446;SDS011;717;51.522;7.266;2023-07-08T08:41:28;7.18;;;3.13;;
1446;SDS011;717;51.522;7.266;2023-07-08T08:44:00;4.97;;;3.20;;
1446;SDS011;717;51.522;7.266;2023-07-08T08:46:32;3.67;;;3.22;;
1446;SDS011;717;51.522;7.266;2023-07-08T08:49:13;4.18;;;3.25;;
1446;SDS011;717;51.522;7.266;2023-07-08T08:51:50;4.18;;;3.38;;
1446;SDS011;717;51.522;7.266;2023-07-08T08:54:21;5.82;;;3.97;;
1446;SDS011;717;51.522;7.266;2023-07-08T08:56:56;4.18;;;3.60;;
1446;SDS011;717;51.522;7.266;2023-07-08T08:59:34;3.80;;;3.40;;
1446;SDS011;717;51.522;7.266;2023-07-08T09:02:21;4.65;;;3.53;;
1446;SDS011;717;51.522;7.266;2023-07-08T09:04:56;3.92;;;3.45;;
1446;SDS011;717;51.522;7.266;2023-07-08T09:07:31;4.07;;;3.50;;
1446;SDS011;717;51.522;7.266;2023-07-08T09:10:09;3.58;;;3.05;;
1446;SDS011;717;51.522;7.266;2023-07-08T09:12:51;4.35;;;3.72;;
1446;SDS011;717;51.522;7.266;2023-07-08T09:15:25;6.65;;;3.88;;
1446;SDS011;717;51.522;7.266;2023-07-08T09:17:57;4.32;;;3.60;;
1446;SDS011;717;51.522;7.266;2023-07-08T09:20:34;5.38;;;3.80;;
1446;SDS011;717;51.522;7.266;2023-07-08T09:23:07;5.32;;;3.58;;
1446;SDS011;717;51.522;7.266;2023-07-08T09:25:49;5.88;;;3.80;;
1446;SDS011;717;51.522;7.266;2023-07-08T09:28:37;5.65;;;3.72;;
1446;SDS011;717;51.522;7.266;2023-07-08T09:31:08;5.10;;;3.58;;
1446;SDS011;717;51.522;7.266;2023-07-08T09:33:50;5.25;;;3.60;;
1446;SDS011;717;51.522;7.266;2023-07-08T09:36:22;4.50;;;3.90;;
1446;SDS011;717;51.522;7.266;2023-07-08T09:38:54;4.10;;;3.70;;
1446;SDS011;717;51.522;7.266;2023-07-08T09:41:30;6.00;;;3.92;;
1446;SDS011;717;51.522;7.266;2023-07-08T09:44:12;7.40;;;4.47;;
1446;SDS011;717;51.522;7.266;2023-07-08T09:46:45;5.15;;;4.13;;
1446;SDS011;717;51.522;7.266;2023-07-08T09:49:16;4.45;;;4.05;;
1446;SDS011;717;51.522;7.266;2023-07-08T09:51:49;4.53;;;4.07;;
1446;SDS011;717;51.522;7.266;2023-07-08T09:54:22;5.25;;;4.00;;
1446;SDS011;717;51.522;7.266;2023-07-08T09:57:00;5.22;;;3.75;;
1446;SDS011;717;51.522;7.266;2023-07-08T09:59:42;9.20;;;4.00;;
1446;SDS011;717;51.522;7.266;2023-07-08T10:02:20;5.85;;;3.80;;
1446;SDS011;717;51.522;7.266;2023-07-08T10:04:56;5.07;;;3.80;;
1446;SDS011;717;51.522;7.266;2023-07-08T10:07:28;5.25;;;4.10;;
1446;SDS011;717;51.522;7.266;2023-07-08T10:10:01;4.25;;;3.83;;
1446;SDS011;717;51.522;7.266;2023-07-08T10:12:35;5.70;;;3.65;;
1446;SDS011;717;51.522;7.266;2023-07-08T10:15:15;4.80;;;3.53;;
1446;SDS011;717;51.522;7.266;2023-07-08T10:17:51;4.75;;;3.38;;
1446;SDS011;717;51.522;7.266;2023-07-08T10:20:22;5.13;;;3.33;;
1446;SDS011;717;51.522;7.266;2023-07-08T10:22:57;3.55;;;3.10;;
1446;SDS011;717;51.522;7.266;2023-07-08T10:25:42;4.55;;;3.22;;
1446;SDS011;717;51.522;7.266;2023-07-08T10:28:22;3.40;;;3.10;;
1446;SDS011;717;51.522;7.266;2023-07-08T10:31:05;4.22;;;3.47;;
1446;SDS011;717;51.522;7.266;2023-07-08T10:33:49;5.28;;;3.20;;
1446;SDS011;717;51.522;7.266;2023-07-08T10:36:31;6.80;;;3.10;;
1446;SDS011;717;51.522;7.266;2023-07-08T10:39:22;3.15;;;2.85;;
1446;SDS011;717;51.522;7.266;2023-07-08T10:42:06;3.55;;;3.22;;
1446;SDS011;717;51.522;7.266;2023-07-08T10:44:50;4.18;;;2.80;;
1446;SDS011;717;51.522;7.266;2023-07-08T10:47:32;5.40;;;3.05;;
1446;SDS011;717;51.522;7.266;2023-07-08T10:50:17;3.67;;;3.13;;
1446;SDS011;717;51.522;7.266;2023-07-08T10:52:57;5.20;;;3.20;;
1446;SDS011;717;51.522;7.266;2023-07-08T10:55:37;3.38;;;3.08;;
1446;SDS011;717;51.522;7.266;2023-07-08T11:01:07;4.50;;;3.00;;
1446;SDS011;717;51.522;7.266;2023-07-08T11:03:58;3.90;;;3.08;;
1446;SDS011;717;51.522;7.266;2023-07-08T11:06:48;4.30;;;3.15;;
1446;SDS011;717;51.522;7.266;2023-07-08T11:09:25;3.75;;;3.03;;
1446;SDS011;717;51.522;7.266;2023-07-08T11:12:01;3.95;;;3.42;;
1446;SDS011;717;51.522;7.266;2023-07-08T11:14:39;5.60;;;3.30;;
1446;SDS011;717;51.522;7.266;2023-07-08T11:17:14;4.05;;;3.63;;
1446;SDS011;717;51.522;7.266;2023-07-08T11:19:53;5.28;;;4.38;;
1446;SDS011;717;51.522;7.266;2023-07-08T11:22:28;4.68;;;3.50;;
1446;SDS011;717;51.522;7.266;2023-07-08T11:25:01;4.95;;;4.45;;
1446;SDS011;717;51.522;7.266;2023-07-08T11:27:33;8.15;;;4.85;;
1446;SDS011;717;51.522;7.266;2023-07-08T11:30:12;4.35;;;3.20;;
1446;SDS011;717;51.522;7.266;2023-07-08T11:32:47;4.55;;;3.53;;
1446;SDS011;717;51.522;7.266;2023-07-08T11:35:26;4.45;;;3.08;;
1446;SDS011;717;51.522;7.266;2023-07-08T11:38:06;3.80;;;3.05;;
1446;SDS011;717;51.522;7.266;2023-07-08T11:40:52;5.13;;;3.30;;
1446;SDS011;717;51.522;7.266;2023-07-08T11:43:26;3.47;;;3.08;;
1446;SDS011;717;51.522;7.266;2023-07-08T11:46:03;6.05;;;4.47;;
1446;SDS011;717;51.522;7.266;2023-07-08T11:48:37;3.63;;;3.00;;
1446;SDS011;717;51.522;7.266;2023-07-08T11:51:16;4.82;;;2.70;;
1446;SDS011;717;51.522;7.266;2023-07-08T11:53:49;6.57;;;3.25;;
1446;SDS011;717;51.522;7.266;2023-07-08T11:56:21;4.03;;;2.70;;
1446;SDS011;717;51.522;7.266;2023-07-08T11:59:04;6.28;;;3.97;;
1446;SDS011;717;51.522;7.266;2023-07-08T12:01:46;4.60;;;3.20;;
1446;SDS011;717;51.522;7.266;2023-07-08T12:04:25;5.07;;;3.60;;
1446;SDS011;717;51.522;7.266;2023-07-08T12:07:06;4.40;;;3.20;;
1446;SDS011;717;51.522;7.266;2023-07-08T12:09:44;3.60;;;3.30;;
1446;SDS011;717;51.522;7.266;2023-07-08T12:12:21;4.50;;;3.33;;
1446;SDS011;717;51.522;7.266;2023-07-08T12:15:01;6.07;;;3.45;;
1446;SDS011;717;51.522;7.266;2023-07-08T12:17:39;4.82;;;3.25;;
1446;SDS011;717;51.522;7.266;2023-07-08T12:20:16;4.00;;;3.17;;
1446;SDS011;717;51.522;7.266;2023-07-08T12:22:51;4.20;;;3.00;;
1446;SDS011;717;51.522;7.266;2023-07-08T12:25:22;4.05;;;3.40;;
1446;SDS011;717;51.522;7.266;2023-07-08T12:27:55;4.03;;;3.63;;
1446;SDS011;717;51.522;7.266;2023-07-08T12:30:25;5.13;;;3.25;;
1446;SDS011;717;51.522;7.266;2023-07-08T12:32:58;4.35;;;3.00;;
1446;SDS011;717;51.522;7.266;2023-07-08T12:35:31;6.30;;;3.17;;
1446;SDS011;717;51.522;7.266;2023-07-08T12:38:09;4.07;;;3.40;;
1446;SDS011;717;51.522;7.266;2023-07-08T12:40:47;4.18;;;3.28;;
1446;SDS011;717;51.522;7.266;2023-07-08T12:43:17;4.93;;;3.22;;
1446;SDS011;717;51.522;7.266;2023-07-08T12:45:47;4.88;;;3.10;;
1446;SDS011;717;51.522;7.266;2023-07-08T12:48:17;4.35;;;3.22;;
1446;SDS011;717;51.522;7.266;2023-07-08T12:50:47;3.08;;;2.78;;
1446;SDS011;717;51.522;7.266;2023-07-08T12:53:20;4.15;;;2.92;;
1446;SDS011;717;51.522;7.266;2023-07-08T12:55:49;5.93;;;3.20;;
1446;SDS011;717;51.522;7.266;2023-07-08T12:58:25;3.65;;;3.20;;
1446;SDS011;717;51.522;7.266;2023-07-08T13:00:57;3.83;;;2.95;;
1446;SDS011;717;51.522;7.266;2023-07-08T13:03:33;4.15;;;2.72;;
1446;SDS011;717;51.522;7.266;2023-07-08T13:06:05;4.97;;;3.10;;
1446;SDS011;717;51.522;7.266;2023-07-08T13:08:41;3.80;;;3.08;;
1446;SDS011;717;51.522;7.266;2023-07-08T13:11:13;3.97;;;2.95;;
1446;SDS011;717;51.522;7.266;2023-07-08T13:13:47;3.45;;;2.83;;
1446;SDS011;717;51.522;7.266;2023-07-08T13:16:20;4.18;;;2.90;;
1446;SDS011;717;51.522;7.266;2023-07-08T13:18:52;4.78;;;3.08;;
1446;SDS011;717;51.522;7.266;2023-07-08T13:21:22;3.72;;;3.20;;
1446;SDS011;717;51.522;7.266;2023-07-08T13:23:56;4.05;;;3.38;;
1446;SDS011;717;51.522;7.266;2023-07-08T13:26:27;5.15;;;3.30;;
1446;SDS011;717;51.522;7.266;2023-07-08T13:29:00;4.07;;;3.25;;
1446;SDS011;717;51.522;7.266;2023-07-08T13:31:32;3.45;;;2.83;;
1446;SDS011;717;51.522;7.266;2023-07-08T13:34:07;4.57;;;3.00;;
1446;SDS011;717;51.522;7.266;2023-07-08T13:36:39;4.07;;;3.30;;
1446;SDS011;717;51.522;7.266;2023-07-08T13:39:17;3.30;;;3.00;;
1446;SDS011;717;51.522;7.266;2023-07-08T13:41:51;4.75;;;3.28;;
1446;SDS011;717;51.522;7.266;2023-07-08T13:44:21;5.03;;;3.53;;
1446;SDS011;717;51.522;7.266;2023-07-08T13:46:52;4.90;;;3.05;;
1446;SDS011;717;51.522;7.266;2023-07-08T13:49:25;6.18;;;3.30;;
1446;SDS011;717;51.522;7.266;2023-07-08T13:52:06;4.32;;;2.88;;
1446;SDS011;717;51.522;7.266;2023-07-08T13:54:49;4.90;;;2.90;;
1446;SDS011;717;51.522;7.266;2023-07-08T13:57:23;4.20;;;3.35;;
1446;SDS011;717;51.522;7.266;2023-07-08T13:59:58;3.55;;;3.22;;
1446;SDS011;717;51.522;7.266;2023-07-08T14:02:37;4.82;;;3.03;;
1446;SDS011;717;51.522;7.266;2023-07-08T14:05:13;4.40;;;3.10;;
1446;SDS011;717;51.522;7.266;2023-07-08T14:07:46;3.90;;;3.00;;
1446;SDS011;717;51.522;7.266;2023-07-08T14:10:19;4.13;;;2.92;;
1446;SDS011;717;51.522;7.266;2023-07-08T14:12:50;4.20;;;3.33;;
1446;SDS011;717;51.522;7.266;2023-07-08T14:15:20;3.35;;;3.05;;
1446;SDS011;717;51.522;7.266;2023-07-08T14:17:50;4.38;;;3.40;;
1446;SDS011;717;51.522;7.266;2023-07-08T14:20:20;5.10;;;3.15;;
1446;SDS011;717;51.522;7.266;2023-07-08T14:22:53;4.40;;;3.33;;
1446;SDS011;717;51.522;7.266;2023-07-08T14:25:26;3.72;;;3.03;;
1446;SDS011;717;51.522;7.266;2023-07-08T14:27:56;4.18;;;2.85;;
1446;SDS011;717;51.522;7.266;2023-07-08T14:30:26;3.67;;;2.70;;
1446;SDS011;717;51.522;7.266;2023-07-08T14:32:56;3.63;;;2.95;;
1446;SDS011;717;51.522;7.266;2023-07-08T14:35:26;5.50;;;3.20;;
1446;SDS011;717;51.522;7.266;2023-07-08T14:37:58;4.80;;;2.67;;
1446;SDS011;717;51.522;7.266;2023-07-08T14:40:32;3.60;;;3.30;;
1446;SDS011;717;51.522;7.266;2023-07-08T14:43:04;3.75;;;3.00;;
1446;SDS011;717;51.522;7.266;2023-07-08T14:45:37;3.50;;;2.85;;
1446;SDS011;717;51.522;7.266;2023-07-08T14:48:11;3.47;;;3.00;;
1446;SDS011;717;51.522;7.266;2023-07-08T14:50:42;4.72;;;3.33;;
1446;SDS011;717;51.522;7.266;2023-07-08T14:53:12;3.53;;;3.03;;
1446;SDS011;717;51.522;7.266;2023-07-08T14:55:46;3.53;;;3.10;;
1446;SDS011;717;51.522;7.266;2023-07-08T14:58:20;3.50;;;3.20;;
1446;SDS011;717;51.522;7.266;2023-07-08T15:00:53;5.28;;;3.17;;
1446;SDS011;717;51.522;7.266;2023-07-08T15:03:24;3.83;;;2.90;;
1446;SDS011;717;51.522;7.266;2023-07-08T15:05:55;3.28;;;2.75;;
1446;SDS011;717;51.522;7.266;2023-07-08T15:08:25;4.03;;;3.20;;
1446;SDS011;717;51.522;7.266;2023-07-08T15:11:00;3.70;;;2.90;;
1446;SDS011;717;51.522;7.266;2023-07-08T15:13:32;2.97;;;2.67;;
1446;SDS011;717;51.522;7.266;2023-07-08T15:16:03;3.92;;;2.63;;
1446;SDS011;717;51.522;7.266;2023-07-08T15:18:33;5.47;;;3.25;;
1446;SDS011;717;51.522;7.266;2023-07-08T15:21:04;3.75;;;2.63;;
1446;SDS011;717;51.522;7.266;2023-07-08T15:23:34;3.80;;;3.03;;
1446;SDS011;717;51.522;7.266;2023-07-08T15:26:08;4.13;;;2.90;;
1446;SDS011;717;51.522;7.266;2023-07-08T15:28:40;4.00;;;2.90;;
1446;SDS011;717;51.522;7.266;2023-07-08T15:31:15;3.53;;;3.22;;
1446;SDS011;717;51.522;7.266;2023-07-08T15:33:46;5.13;;;3.08;;
1446;SDS011;717;51.522;7.266;2023-07-08T15:36:18;4.30;;;3.00;;
1446;SDS011;717;51.522;7.266;2023-07-08T15:38:49;4.53;;;3.20;;
1446;SDS011;717;51.522;7.266;2023-07-08T15:41:22;6.07;;;3.58;;
1446;SDS011;717;51.522;7.266;2023-07-08T15:43:54;5.40;;;3.25;;
1446;SDS011;717;51.522;7.266;2023-07-08T15:46:26;4.57;;;2.95;;
1446;SDS011;717;51.522;7.266;2023-07-08T15:49:04;4.63;;;3.45;;
1446;SDS011;717;51.522;7.266;2023-07-08T15:51:42;7.10;;;2.95;;
1446;SDS011;717;51.522;7.266;2023-07-08T15:54:16;7.85;;;3.33;;
1446;SDS011;717;51.522;7.266;2023-07-08T15:56:50;5.53;;;3.70;;
1446;SDS011;717;51.522;7.266;2023-07-08T15:59:23;4.30;;;3.13;;
1446;SDS011;717;51.522;7.266;2023-07-08T16:01:57;7.55;;;3.40;;
1446;SDS011;717;51.522;7.266;2023-07-08T16:04:32;4.35;;;3.10;;
1446;SDS011;717;51.522;7.266;2023-07-08T16:07:04;5.30;;;3.78;;
1446;SDS011;717;51.522;7.266;2023-07-08T16:09:36;4.88;;;3.40;;